createdAt,value
2023-05-19T00:02:33.945Z,4.00
2023-05-19T00:05:07.423Z,3.60
2023-05-19T00:07:40.413Z,2.40
2023-05-19T00:10:15.185Z,4.50
2023-05-19T00:12:47.793Z,3.10
2023-05-19T00:15:20.183Z,2.80
2023-05-19T00:17:52.438Z,2.60
2023-05-19T00:20:23.794Z,4.10
2023-05-19T00:22:54.774Z,4.20
2023-05-19T00:25:26.087Z,3.40
2023-05-19T00:27:59.268Z,2.80
2023-05-19T00:30:30.924Z,4.30
2023-05-19T00:33:02.650Z,4.60
2023-05-19T00:35:33.956Z,2.50
2023-05-19T00:38:04.945Z,2.70
2023-05-19T00:43:08.431Z,2.90
2023-05-19T00:45:39.673Z,1.70
2023-05-19T00:48:10.920Z,2.20
2023-05-19T00:50:42.810Z,4.50
2023-05-19T00:53:16.021Z,3.90
2023-05-19T00:55:48.946Z,4.00
2023-05-19T00:58:20.308Z,2.50
2023-05-19T01:00:51.632Z,3.30
2023-05-19T01:03:23.333Z,3.60
2023-05-19T01:05:54.784Z,3.60
2023-05-19T01:08:26.225Z,1.90
2023-05-19T01:10:57.255Z,2.90
2023-05-19T01:13:28.994Z,2.80
2023-05-19T01:16:09.077Z,2.90
2023-05-19T01:18:48.735Z,3.30
2023-05-19T01:21:44.548Z,3.00
2023-05-19T01:24:35.355Z,4.10
2023-05-19T01:27:42.461Z,3.40
2023-05-19T01:30:34.915Z,2.80
2023-05-19T01:33:14.489Z,6.00
2023-05-19T01:35:47.170Z,2.60
2023-05-19T01:38:20.765Z,3.60
2023-05-19T01:40:53.454Z,3.90
2023-05-19T01:43:27.650Z,1.70
2023-05-19T01:45:59.816Z,2.90
2023-05-19T01:48:31.742Z,4.40
2023-05-19T01:51:02.666Z,2.60
2023-05-19T01:53:34.124Z,2.10
2023-05-19T01:56:06.776Z,2.60
2023-05-19T01:58:45.267Z,6.90
2023-05-19T02:01:26.744Z,3.00
2023-05-19T02:04:13.216Z,5.40
2023-05-19T02:06:49.568Z,3.10
2023-05-19T02:09:24.613Z,5.60
2023-05-19T02:12:00.421Z,2.70
2023-05-19T02:14:35.337Z,3.60
2023-05-19T02:17:07.516Z,3.40
2023-05-19T02:19:40.523Z,5.40
2023-05-19T02:22:11.769Z,3.60
2023-05-19T02:24:44.521Z,3.50
2023-05-19T02:27:16.074Z,4.90
2023-05-19T02:29:47.164Z,5.10
2023-05-19T02:32:19.229Z,4.20
2023-05-19T02:34:50.388Z,2.80
2023-05-19T02:37:24.027Z,4.90
2023-05-19T02:39:55.464Z,3.90
2023-05-19T02:42:26.701Z,4.70
2023-05-19T02:44:58.405Z,2.80
2023-05-19T02:47:30.063Z,4.00
2023-05-19T02:50:01.303Z,3.20
2023-05-19T02:52:32.525Z,4.80
2023-05-19T02:57:34.299Z,3.20
2023-05-19T03:00:06.012Z,3.10
2023-05-19T03:02:37.582Z,3.40
2023-05-19T03:05:11.217Z,2.60
2023-05-19T03:07:42.211Z,4.30
2023-05-19T03:12:42.875Z,2.50
2023-05-19T03:17:46.137Z,5.40
2023-05-19T03:20:17.386Z,2.70
2023-05-19T03:22:48.448Z,3.20
2023-05-19T03:25:19.738Z,3.70
2023-05-19T03:27:50.808Z,5.10
2023-05-19T03:30:22.388Z,7.00
2023-05-19T03:32:53.542Z,4.20
2023-05-19T03:35:25.250Z,4.90
2023-05-19T03:37:56.295Z,3.70
2023-05-19T03:40:27.470Z,4.20
2023-05-19T03:42:58.584Z,3.20
2023-05-19T03:45:29.811Z,3.10
2023-05-19T03:48:01.058Z,3.70
2023-05-19T03:50:34.191Z,3.70
2023-05-19T03:53:06.362Z,4.10
2023-05-19T03:55:37.783Z,4.20
2023-05-19T03:58:08.806Z,4.50
2023-05-19T04:00:39.799Z,3.40
2023-05-19T04:05:40.472Z,3.70
2023-05-19T04:08:11.518Z,5.40
2023-05-19T04:10:42.719Z,4.90
2023-05-19T04:13:14.027Z,3.40
2023-05-19T04:18:14.580Z,5.20
2023-05-19T04:20:46.081Z,3.00
2023-05-19T04:23:17.167Z,2.70
2023-05-19T04:25:49.759Z,2.30
2023-05-19T04:28:21.714Z,3.40
2023-05-19T04:30:52.894Z,3.80
2023-05-19T04:33:24.861Z,5.80
2023-05-19T04:35:55.897Z,3.30
2023-05-19T04:38:30.137Z,5.50
2023-05-19T04:41:01.892Z,3.70
2023-05-19T04:43:32.975Z,4.40
2023-05-19T04:48:33.522Z,3.00
2023-05-19T04:51:05.327Z,3.00
2023-05-19T04:53:36.739Z,4.80
2023-05-19T04:56:08.680Z,3.00
2023-05-19T04:58:41.910Z,4.90
2023-05-19T05:01:15.939Z,2.90
2023-05-19T05:03:47.171Z,2.40
2023-05-19T05:08:47.725Z,2.40
2023-05-19T05:11:19.741Z,4.30
2023-05-19T05:13:52.003Z,4.40
2023-05-19T05:16:24.374Z,3.30
2023-05-19T05:18:57.599Z,2.50
2023-05-19T05:21:29.727Z,2.10
2023-05-19T05:24:01.854Z,2.40
2023-05-19T05:26:34.935Z,3.70
2023-05-19T05:29:06.554Z,3.10
2023-05-19T05:31:38.138Z,2.00
2023-05-19T05:34:13.225Z,2.90
2023-05-19T05:36:44.277Z,3.00
2023-05-19T05:41:44.877Z,6.10
2023-05-19T05:44:15.910Z,1.50
2023-05-19T05:46:48.475Z,3.20
2023-05-19T05:49:20.544Z,2.10
2023-05-19T05:52:04.849Z,1.80
2023-05-19T05:54:37.538Z,2.40
2023-05-19T05:57:10.176Z,2.90
2023-05-19T05:59:41.745Z,2.50
2023-05-19T06:02:13.144Z,3.00
2023-05-19T06:04:45.195Z,2.50
2023-05-19T06:07:16.309Z,2.40
2023-05-19T06:09:47.402Z,3.50
2023-05-19T06:12:18.502Z,4.20
2023-05-19T06:14:49.750Z,2.90
2023-05-19T06:17:20.681Z,4.00
2023-05-19T06:19:51.850Z,2.30
2023-05-19T06:22:23.104Z,3.70
2023-05-19T06:24:54.169Z,1.80
2023-05-19T06:27:25.181Z,3.10
2023-05-19T06:29:56.428Z,3.50
2023-05-19T06:32:29.743Z,1.90
2023-05-19T06:35:00.925Z,6.40
2023-05-19T06:37:32.018Z,2.90
2023-05-19T06:40:03.953Z,3.60
2023-05-19T06:42:35.333Z,4.00
2023-05-19T06:45:06.968Z,3.40
2023-05-19T06:47:37.937Z,2.40
2023-05-19T06:50:10.182Z,3.30
2023-05-19T06:52:41.367Z,7.50
2023-05-19T06:55:14.009Z,4.40
2023-05-19T06:57:45.602Z,2.70
2023-05-19T07:00:19.972Z,2.60
2023-05-19T07:02:53.323Z,3.20
2023-05-19T07:05:25.137Z,2.80
2023-05-19T07:07:56.224Z,4.70
2023-05-19T07:15:26.382Z,2.40
2023-05-19T07:17:57.471Z,4.40
2023-05-19T07:20:28.760Z,3.90
2023-05-19T07:22:59.787Z,4.00
2023-05-19T07:25:31.217Z,3.30
2023-05-19T07:28:02.642Z,3.60
2023-05-19T07:30:34.397Z,3.30
2023-05-19T07:33:05.736Z,2.90
2023-05-19T07:35:36.910Z,7.80
2023-05-19T07:38:08.407Z,2.30
2023-05-19T07:40:39.372Z,4.10
2023-05-19T07:43:11.386Z,4.30
2023-05-19T07:45:42.537Z,3.90
2023-05-19T07:48:13.892Z,3.20
2023-05-19T07:50:45.232Z,4.70
2023-05-19T07:53:16.739Z,2.90
2023-05-19T07:55:49.594Z,3.90
2023-05-19T07:58:20.804Z,3.40
2023-05-19T08:00:51.880Z,3.10
2023-05-19T08:03:23.849Z,4.10
2023-05-19T08:05:55.594Z,3.50
2023-05-19T08:08:27.016Z,3.20
2023-05-19T08:10:57.921Z,2.90
2023-05-19T08:13:28.997Z,3.40
2023-05-19T08:16:00.811Z,2.40
2023-05-19T08:18:32.154Z,3.90
2023-05-19T08:21:03.647Z,2.60
2023-05-19T08:23:34.782Z,3.80
2023-05-19T08:26:05.966Z,2.50
2023-05-19T08:28:36.903Z,2.40
2023-05-19T08:31:08.136Z,2.80
2023-05-19T08:33:39.206Z,4.20
2023-05-19T08:38:40.140Z,4.50
2023-05-19T08:41:11.353Z,2.00
2023-05-19T08:43:42.578Z,2.60
2023-05-19T08:46:16.990Z,4.60
2023-05-19T08:48:55.246Z,3.60
2023-05-19T08:51:34.782Z,2.90
2023-05-19T08:54:13.953Z,5.00
2023-05-19T08:56:46.616Z,2.40
2023-05-19T08:59:18.404Z,3.10
2023-05-19T09:01:50.157Z,1.90
2023-05-19T09:04:22.338Z,3.60
2023-05-19T09:06:53.633Z,2.70
2023-05-19T09:09:24.915Z,3.70
2023-05-19T09:11:56.350Z,2.10
2023-05-19T09:14:27.886Z,3.40
2023-05-19T09:16:59.031Z,2.70
2023-05-19T09:19:31.532Z,2.80
2023-05-19T09:22:04.789Z,3.10
2023-05-19T09:24:37.970Z,3.20
2023-05-19T09:27:09.304Z,1.90
2023-05-19T09:29:40.418Z,1.80
2023-05-19T09:32:11.563Z,2.50
2023-05-19T09:34:44.393Z,2.00
2023-05-19T09:37:16.946Z,3.10
2023-05-19T09:39:52.153Z,4.40
2023-05-19T09:42:29.900Z,2.30
2023-05-19T09:45:04.983Z,2.10
2023-05-19T09:47:38.748Z,3.20
2023-05-19T09:50:12.515Z,2.40
2023-05-19T09:52:45.859Z,3.50
2023-05-19T09:55:18.115Z,3.20
2023-05-19T09:57:49.192Z,4.00
2023-05-19T10:00:21.524Z,2.90
2023-05-19T10:02:53.024Z,3.10
2023-05-19T10:05:24.928Z,2.20
2023-05-19T10:07:56.861Z,2.50
2023-05-19T10:10:28.891Z,2.00
2023-05-19T10:13:04.147Z,2.20
2023-05-19T10:15:46.687Z,1.30
2023-05-19T10:18:29.931Z,1.70
2023-05-19T10:21:02.347Z,2.60
2023-05-19T10:23:33.836Z,2.40
2023-05-19T10:26:07.804Z,2.40
2023-05-19T10:28:42.191Z,2.80
2023-05-19T10:31:19.738Z,2.80
2023-05-19T10:34:08.919Z,3.30
2023-05-19T10:36:48.864Z,2.50
2023-05-19T10:39:24.094Z,8.10
2023-05-19T10:42:05.244Z,8.10
2023-05-19T10:44:48.136Z,4.10
2023-05-19T10:47:26.373Z,2.70
2023-05-19T10:49:57.908Z,4.20
2023-05-19T10:52:33.109Z,2.20
2023-05-19T10:55:05.366Z,2.80
2023-05-19T10:57:36.831Z,4.20
2023-05-19T11:00:31.783Z,5.00
2023-05-19T11:03:17.799Z,3.70
2023-05-19T11:05:51.075Z,3.40
2023-05-19T11:08:36.549Z,3.40
2023-05-19T11:11:17.610Z,2.50
2023-05-19T11:13:55.139Z,2.50
2023-05-19T11:16:33.658Z,2.90
2023-05-19T11:19:07.450Z,6.90
2023-05-19T11:21:55.028Z,5.30
2023-05-19T11:24:45.919Z,4.70
2023-05-19T11:27:28.660Z,4.20
2023-05-19T11:30:02.008Z,4.30
2023-05-19T11:32:35.887Z,5.40
2023-05-19T11:35:08.292Z,5.60
2023-05-19T11:37:40.545Z,4.60
2023-05-19T11:40:14.496Z,4.50
2023-05-19T11:42:45.711Z,3.50
2023-05-19T11:45:16.655Z,4.00
2023-05-19T11:48:01.227Z,4.60
2023-05-19T11:50:36.942Z,4.00
2023-05-19T11:53:08.209Z,3.50
2023-05-19T11:55:46.687Z,4.00
2023-05-19T11:58:18.314Z,3.80
2023-05-19T12:00:49.187Z,4.30
2023-05-19T12:03:26.707Z,5.30
2023-05-19T12:05:58.059Z,4.50
2023-05-19T12:08:30.622Z,4.50
2023-05-19T12:11:02.138Z,4.90
2023-05-19T12:13:33.289Z,5.10
2023-05-19T12:16:06.823Z,7.20
2023-05-19T12:18:42.100Z,3.90
2023-05-19T12:21:13.348Z,3.30
2023-05-19T12:23:44.478Z,4.10
2023-05-19T12:26:16.344Z,4.70
2023-05-19T12:28:49.234Z,4.60
2023-05-19T12:31:21.257Z,3.80
2023-05-19T12:33:53.198Z,3.70
2023-05-19T12:36:27.141Z,5.00
2023-05-19T12:38:58.812Z,5.60
2023-05-19T12:41:30.358Z,3.10
2023-05-19T12:44:01.588Z,6.30
2023-05-19T12:46:35.288Z,6.00
2023-05-19T12:49:06.480Z,5.70
2023-05-19T12:51:37.779Z,2.90
2023-05-19T12:54:09.362Z,4.00
2023-05-19T12:56:40.234Z,5.50
2023-05-19T12:59:11.355Z,4.60
2023-05-19T13:01:42.474Z,4.60
2023-05-19T13:04:13.679Z,5.30
2023-05-19T13:06:45.088Z,5.00
2023-05-19T13:09:17.394Z,5.10
2023-05-19T13:11:51.263Z,4.20
2023-05-19T13:14:23.297Z,3.00
2023-05-19T13:16:54.445Z,45.20
2023-05-19T13:19:26.248Z,3.50
2023-05-19T13:21:57.565Z,4.80
2023-05-19T13:24:28.782Z,2.90
2023-05-19T13:26:59.852Z,3.50
2023-05-19T13:29:31.677Z,4.10
2023-05-19T13:32:02.564Z,3.40
2023-05-19T13:34:33.866Z,3.80
2023-05-19T13:37:06.194Z,3.60
2023-05-19T13:39:38.964Z,4.10
2023-05-19T13:42:10.033Z,5.00
2023-05-19T13:44:41.083Z,4.10
2023-05-19T13:47:12.606Z,2.90
2023-05-19T13:49:43.871Z,3.10
2023-05-19T13:52:33.580Z,2.80
2023-05-19T13:55:05.937Z,3.20
2023-05-19T13:57:38.340Z,3.10
2023-05-19T14:00:11.867Z,3.90
2023-05-19T14:02:43.144Z,3.40
2023-05-19T14:05:14.656Z,4.20
2023-05-19T14:07:49.626Z,3.60
2023-05-19T14:10:20.605Z,4.40
2023-05-19T14:15:30.062Z,9.90
2023-05-19T14:18:01.351Z,3.90
2023-05-19T14:20:32.882Z,4.70
2023-05-19T14:23:04.091Z,2.50
2023-05-19T14:25:35.214Z,3.70
2023-05-19T14:28:06.810Z,4.00
2023-05-19T14:30:38.076Z,4.20
2023-05-19T14:33:09.585Z,4.30
2023-05-19T14:35:40.733Z,5.60
2023-05-19T14:38:11.930Z,5.60
2023-05-19T14:40:43.162Z,3.90
2023-05-19T14:43:14.287Z,6.10
2023-05-19T14:45:45.431Z,3.90
2023-05-19T14:48:16.537Z,4.90
2023-05-19T14:50:49.444Z,5.10
2023-05-19T14:53:20.799Z,4.50
2023-05-19T14:55:52.306Z,5.10
2023-05-19T14:58:28.825Z,12.90
2023-05-19T15:01:01.577Z,4.90
2023-05-19T15:03:32.739Z,6.50
2023-05-19T15:06:03.804Z,5.30
2023-05-19T15:08:37.704Z,5.60
2023-05-19T15:11:08.982Z,4.40
2023-05-19T15:13:39.991Z,7.40
2023-05-19T15:16:17.382Z,4.90
2023-05-19T15:18:49.149Z,5.40
2023-05-19T15:21:20.469Z,7.40
2023-05-19T15:23:51.751Z,8.00
2023-05-19T15:26:23.282Z,5.40
2023-05-19T15:28:56.107Z,8.90
2023-05-19T15:31:27.890Z,5.00
2023-05-19T15:33:59.328Z,5.20
2023-05-19T15:36:30.275Z,6.10
2023-05-19T15:39:01.394Z,5.50
2023-05-19T15:41:33.810Z,5.50
2023-05-19T15:44:06.754Z,7.30
2023-05-19T15:46:37.669Z,5.50
2023-05-19T15:49:09.226Z,5.60
2023-05-19T15:51:44.565Z,4.50
2023-05-19T15:54:16.046Z,4.40
2023-05-19T15:56:46.994Z,6.40
2023-05-19T15:59:18.101Z,4.10
2023-05-19T16:01:50.575Z,5.80
2023-05-19T16:04:23.845Z,5.60
2023-05-19T16:06:54.806Z,6.30
2023-05-19T16:09:26.543Z,6.00
2023-05-19T16:11:57.654Z,5.20
2023-05-19T16:14:31.176Z,7.00
2023-05-19T16:17:02.140Z,5.10
2023-05-19T16:19:33.798Z,4.90
2023-05-19T16:22:05.203Z,5.90
2023-05-19T16:24:36.301Z,7.80
2023-05-19T16:27:07.918Z,4.60
2023-05-19T16:29:39.443Z,4.90
2023-05-19T16:32:11.290Z,4.50
2023-05-19T16:34:42.393Z,4.80
2023-05-19T16:37:13.474Z,5.30
2023-05-19T16:39:45.011Z,6.10
2023-05-19T16:42:16.099Z,9.50
2023-05-19T16:44:47.100Z,6.00
2023-05-19T16:47:18.621Z,5.90
2023-05-19T16:49:49.979Z,7.80
2023-05-19T16:52:21.320Z,7.20
2023-05-19T16:54:52.794Z,8.00
2023-05-19T16:57:24.111Z,7.90
2023-05-19T16:59:55.183Z,6.00
2023-05-19T17:02:26.279Z,6.00
2023-05-19T17:04:57.675Z,5.80
2023-05-19T17:07:29.216Z,6.40
2023-05-19T17:10:00.398Z,9.50
2023-05-19T17:12:31.322Z,7.00
2023-05-19T17:15:02.480Z,7.40
2023-05-19T17:17:33.949Z,9.40
2023-05-19T17:20:05.529Z,9.10
2023-05-19T17:22:37.063Z,9.10
2023-05-19T17:25:09.948Z,10.30
2023-05-19T17:27:41.099Z,9.50
2023-05-19T17:30:14.113Z,7.10
2023-05-19T17:32:45.677Z,7.80
2023-05-19T17:35:17.117Z,6.70
2023-05-19T17:37:48.565Z,9.70
2023-05-19T17:40:20.508Z,10.20
2023-05-19T17:42:51.701Z,7.90
2023-05-19T17:45:23.032Z,9.30
2023-05-19T17:47:54.228Z,7.40
2023-05-19T17:50:25.597Z,9.00
2023-05-19T17:52:58.362Z,8.80
2023-05-19T17:55:31.629Z,7.60
2023-05-19T17:58:03.818Z,10.80
2023-05-19T18:00:35.884Z,9.30
2023-05-19T18:03:08.320Z,7.80
2023-05-19T18:05:43.236Z,8.10
2023-05-19T18:08:15.154Z,9.70
2023-05-19T18:10:48.689Z,8.60
2023-05-19T18:13:19.810Z,7.90
2023-05-19T18:15:52.757Z,8.90
2023-05-19T18:18:23.831Z,8.20
2023-05-19T18:20:54.999Z,11.10
2023-05-19T18:23:26.591Z,9.10
2023-05-19T18:25:57.668Z,9.90
2023-05-19T18:28:29.787Z,9.50
2023-05-19T18:31:05.100Z,7.60
2023-05-19T18:33:36.304Z,10.30
2023-05-19T18:36:08.980Z,11.90
2023-05-19T18:38:40.654Z,10.80
2023-05-19T18:41:11.687Z,11.70
2023-05-19T18:43:42.693Z,12.30
2023-05-19T18:46:14.107Z,11.90
2023-05-19T18:48:45.292Z,10.80
2023-05-19T18:51:18.625Z,12.30
2023-05-19T18:53:50.951Z,14.00
2023-05-19T18:56:27.264Z,9.90
2023-05-19T18:58:58.318Z,11.60
2023-05-19T19:01:29.619Z,12.20
2023-05-19T19:04:01.118Z,13.80
2023-05-19T19:06:32.387Z,12.50
2023-05-19T19:09:03.480Z,13.60
2023-05-19T19:11:34.596Z,15.70
2023-05-19T19:14:06.045Z,12.60
2023-05-19T19:16:37.844Z,12.80
2023-05-19T19:19:09.996Z,15.30
2023-05-19T19:21:41.991Z,15.70
2023-05-19T19:24:14.126Z,14.60
2023-05-19T19:26:45.651Z,15.20
2023-05-19T19:29:18.235Z,11.80
2023-05-19T19:31:49.589Z,12.10
2023-05-19T19:34:22.459Z,10.90
2023-05-19T19:36:53.624Z,11.60
2023-05-19T19:39:24.795Z,13.80
2023-05-19T19:41:56.232Z,12.30
2023-05-19T19:44:27.306Z,14.90
2023-05-19T19:46:58.247Z,12.00
2023-05-19T19:49:29.776Z,13.00
2023-05-19T19:52:00.999Z,15.30
2023-05-19T19:54:32.773Z,15.70
2023-05-19T19:57:03.823Z,12.60
2023-05-19T19:59:34.988Z,14.90
2023-05-19T20:02:06.046Z,17.50
2023-05-19T20:04:37.705Z,14.90
2023-05-19T20:07:09.218Z,15.00
2023-05-19T20:09:40.596Z,16.20
2023-05-19T20:12:11.946Z,11.50
2023-05-19T20:14:43.383Z,14.10
2023-05-19T20:17:14.641Z,12.60
2023-05-19T20:19:45.972Z,13.20
2023-05-19T20:22:17.586Z,11.60
2023-05-19T20:24:48.698Z,14.70
2023-05-19T20:27:19.673Z,15.00
2023-05-19T20:29:51.057Z,14.10
2023-05-19T20:32:22.236Z,14.80
2023-05-19T20:34:53.217Z,14.80
2023-05-19T20:37:24.963Z,13.30
2023-05-19T20:39:56.103Z,14.30
2023-05-19T20:44:56.540Z,13.50
2023-05-19T20:47:30.312Z,10.80
2023-05-19T20:50:01.692Z,12.60
2023-05-19T20:52:34.354Z,12.90
2023-05-19T20:55:05.852Z,12.50
2023-05-19T20:57:37.360Z,13.90
2023-05-19T21:00:10.984Z,14.60
2023-05-19T21:02:42.823Z,13.40
2023-05-19T21:05:14.944Z,13.40
2023-05-19T21:07:46.256Z,14.00
2023-05-19T21:10:18.053Z,10.00
2023-05-19T21:12:49.140Z,13.50
2023-05-19T21:15:21.425Z,13.50
2023-05-19T21:17:52.678Z,12.10
2023-05-19T21:20:24.258Z,13.40
2023-05-19T21:22:55.461Z,12.70
2023-05-19T21:25:26.747Z,12.40
2023-05-19T21:27:58.266Z,13.00
2023-05-19T21:30:29.204Z,12.80
2023-05-19T21:38:03.906Z,14.00
2023-05-19T21:40:40.182Z,9.60
2023-05-19T21:43:12.673Z,14.60
2023-05-19T21:45:43.847Z,16.50
2023-05-19T21:48:15.184Z,12.90
2023-05-19T21:50:46.432Z,14.00
2023-05-19T21:53:17.577Z,14.10
2023-05-19T21:55:49.787Z,14.00
2023-05-19T21:58:21.220Z,15.00
2023-05-19T22:00:54.552Z,15.20
2023-05-19T22:03:27.173Z,13.90
2023-05-19T22:05:58.851Z,14.80
2023-05-19T22:08:30.362Z,11.10
2023-05-19T22:11:01.978Z,14.30
2023-05-19T22:13:33.996Z,12.90
2023-05-19T22:16:05.651Z,15.20
2023-05-19T22:18:36.942Z,13.90
2023-05-19T22:21:08.305Z,14.20
2023-05-19T22:23:39.261Z,12.40
2023-05-19T22:26:10.296Z,11.50
2023-05-19T22:33:40.449Z,9.50
2023-05-19T22:36:11.700Z,12.40
2023-05-19T22:38:42.919Z,12.80
2023-05-19T22:41:14.067Z,15.30
2023-05-19T22:43:45.198Z,13.90
2023-05-19T22:46:16.380Z,14.90
2023-05-19T22:48:47.394Z,15.30
2023-05-19T22:56:19.669Z,12.70
2023-05-19T22:58:50.963Z,14.00
2023-05-19T23:01:22.045Z,12.50
2023-05-19T23:06:22.706Z,10.50
2023-05-19T23:09:05.278Z,12.90
2023-05-19T23:11:36.852Z,10.80
2023-05-19T23:14:07.713Z,11.30
2023-05-19T23:16:39.935Z,13.70
2023-05-19T23:19:11.209Z,13.10
2023-05-19T23:21:42.260Z,12.80
2023-05-19T23:24:13.434Z,13.80
2023-05-19T23:26:44.568Z,12.90
2023-05-19T23:29:16.314Z,10.60
2023-05-19T23:31:47.411Z,13.30
2023-05-19T23:34:18.593Z,11.70
2023-05-19T23:36:49.911Z,10.60
2023-05-19T23:39:22.022Z,11.80
2023-05-19T23:41:53.208Z,12.80
2023-05-19T23:44:24.162Z,12.50
2023-05-19T23:46:55.559Z,13.80
2023-05-19T23:49:27.103Z,13.70
2023-05-19T23:51:58.277Z,14.40
2023-05-19T23:54:30.386Z,11.40
2023-05-19T23:57:02.509Z,14.20
2023-05-19T23:59:33.524Z,14.60
